sensor_id;sensor_type;location;lat;lon;timestamp;temperature;humidity
20081;DHT22;10200;49.232;9.222;2023-10-08T00:01:15;17.30;85.50
20081;DHT22;10200;49.232;9.222;2023-10-08T00:03:42;17.20;85.30
20081;DHT22;10200;49.232;9.222;2023-10-08T00:06:17;17.20;85.30
20081;DHT22;10200;49.232;9.222;2023-10-08T00:08:46;17.30;85.30
20081;DHT22;10200;49.232;9.222;2023-10-08T00:11:12;17.20;85.30
20081;DHT22;10200;49.232;9.222;2023-10-08T00:13:38;17.20;85.30
20081;DHT22;10200;49.232;9.222;2023-10-08T00:16:11;17.20;85.30
20081;DHT22;10200;49.232;9.222;2023-10-08T00:18:41;17.20;85.40
20081;DHT22;10200;49.232;9.222;2023-10-08T00:21:08;17.10;85.40
20081;DHT22;10200;49.232;9.222;2023-10-08T00:23:37;17.10;85.50
20081;DHT22;10200;49.232;9.222;2023-10-08T00:26:07;17.10;85.70
20081;DHT22;10200;49.232;9.222;2023-10-08T00:28:34;17.10;86.10
20081;DHT22;10200;49.232;9.222;2023-10-08T00:31:03;17.00;86.20
20081;DHT22;10200;49.232;9.222;2023-10-08T00:33:36;17.00;86.60
20081;DHT22;10200;49.232;9.222;2023-10-08T00:36:02;16.90;86.60
20081;DHT22;10200;49.232;9.222;2023-10-08T00:38:43;16.90;86.60
20081;DHT22;10200;49.232;9.222;2023-10-08T00:41:13;16.90;86.80
20081;DHT22;10200;49.232;9.222;2023-10-08T00:43:39;17.30;87.10
20081;DHT22;10200;49.232;9.222;2023-10-08T00:46:07;16.90;86.90
20081;DHT22;10200;49.232;9.222;2023-10-08T00:48:56;16.90;87.10
20081;DHT22;10200;49.232;9.222;2023-10-08T00:51:23;16.90;88.10
20081;DHT22;10200;49.232;9.222;2023-10-08T00:54:00;16.80;87.40
20081;DHT22;10200;49.232;9.222;2023-10-08T00:56:32;16.80;87.30
20081;DHT22;10200;49.232;9.222;2023-10-08T00:59:23;16.80;87.40
20081;DHT22;10200;49.232;9.222;2023-10-08T01:01:50;16.80;87.40
20081;DHT22;10200;49.232;9.222;2023-10-08T01:04:31;16.90;87.50
20081;DHT22;10200;49.232;9.222;2023-10-08T01:07:03;16.80;87.60
20081;DHT22;10200;49.232;9.222;2023-10-08T01:09:38;16.80;87.60
20081;DHT22;10200;49.232;9.222;2023-10-08T01:12:26;16.80;87.40
20081;DHT22;10200;49.232;9.222;2023-10-08T01:15:02;16.80;87.10
20081;DHT22;10200;49.232;9.222;2023-10-08T01:17:42;16.80;87.00
20081;DHT22;10200;49.232;9.222;2023-10-08T01:20:22;16.80;86.90
20081;DHT22;10200;49.232;9.222;2023-10-08T01:23:06;16.80;86.90
20081;DHT22;10200;49.232;9.222;2023-10-08T01:25:36;16.80;86.90
20081;DHT22;10200;49.232;9.222;2023-10-08T01:28:02;16.80;86.80
20081;DHT22;10200;49.232;9.222;2023-10-08T01:30:34;16.90;86.70
20081;DHT22;10200;49.232;9.222;2023-10-08T01:33:07;16.80;86.40
20081;DHT22;10200;49.232;9.222;2023-10-08T01:35:37;16.80;86.40
20081;DHT22;10200;49.232;9.222;2023-10-08T01:38:03;16.80;86.40
20081;DHT22;10200;49.232;9.222;2023-10-08T01:40:29;16.80;86.40
20081;DHT22;10200;49.232;9.222;2023-10-08T01:42:56;16.80;86.40
20081;DHT22;10200;49.232;9.222;2023-10-08T01:45:25;16.80;86.40
20081;DHT22;10200;49.232;9.222;2023-10-08T01:47:51;16.80;86.60
20081;DHT22;10200;49.232;9.222;2023-10-08T01:50:23;16.80;86.70
20081;DHT22;10200;49.232;9.222;2023-10-08T01:52:53;16.80;86.60
20081;DHT22;10200;49.232;9.222;2023-10-08T01:55:19;16.70;86.80
20081;DHT22;10200;49.232;9.222;2023-10-08T01:57:49;16.70;86.80
20081;DHT22;10200;49.232;9.222;2023-10-08T02:00:17;16.70;86.90
20081;DHT22;10200;49.232;9.222;2023-10-08T02:02:49;16.70;87.00
20081;DHT22;10200;49.232;9.222;2023-10-08T02:05:16;16.70;87.10
20081;DHT22;10200;49.232;9.222;2023-10-08T02:07:47;16.70;87.20
20081;DHT22;10200;49.232;9.222;2023-10-08T02:10:13;16.70;87.20
20081;DHT22;10200;49.232;9.222;2023-10-08T02:12:42;16.70;87.40
20081;DHT22;10200;49.232;9.222;2023-10-08T02:15:08;16.70;87.60
20081;DHT22;10200;49.232;9.222;2023-10-08T02:17:37;16.70;87.60
20081;DHT22;10200;49.232;9.222;2023-10-08T02:20:03;16.70;87.70
20081;DHT22;10200;49.232;9.222;2023-10-08T02:22:31;16.70;87.70
20081;DHT22;10200;49.232;9.222;2023-10-08T02:24:58;16.70;87.70
20081;DHT22;10200;49.232;9.222;2023-10-08T02:27:27;16.70;87.90
20081;DHT22;10200;49.232;9.222;2023-10-08T02:29:53;16.70;88.00
20081;DHT22;10200;49.232;9.222;2023-10-08T02:32:20;16.60;88.00
20081;DHT22;10200;49.232;9.222;2023-10-08T02:34:48;16.60;88.10
20081;DHT22;10200;49.232;9.222;2023-10-08T02:37:13;16.80;88.20
20081;DHT22;10200;49.232;9.222;2023-10-08T02:39:40;16.60;88.40
20081;DHT22;10200;49.232;9.222;2023-10-08T02:42:06;16.50;88.40
20081;DHT22;10200;49.232;9.222;2023-10-08T02:44:36;16.50;88.50
20081;DHT22;10200;49.232;9.222;2023-10-08T02:47:10;16.60;88.70
20081;DHT22;10200;49.232;9.222;2023-10-08T02:49:42;16.80;97.00
20081;DHT22;10200;49.232;9.222;2023-10-08T02:52:08;16.40;89.00
20081;DHT22;10200;49.232;9.222;2023-10-08T02:54:36;16.40;89.30
20081;DHT22;10200;49.232;9.222;2023-10-08T02:57:03;16.30;89.30
20081;DHT22;10200;49.232;9.222;2023-10-08T02:59:32;16.30;89.40
20081;DHT22;10200;49.232;9.222;2023-10-08T03:02:11;16.30;89.50
20081;DHT22;10200;49.232;9.222;2023-10-08T03:04:45;16.30;89.50
20081;DHT22;10200;49.232;9.222;2023-10-08T03:07:14;16.30;89.60
20081;DHT22;10200;49.232;9.222;2023-10-08T03:10:12;16.30;89.70
20081;DHT22;10200;49.232;9.222;2023-10-08T03:12:45;16.20;89.70
20081;DHT22;10200;49.232;9.222;2023-10-08T03:15:15;16.20;89.70
20081;DHT22;10200;49.232;9.222;2023-10-08T03:18:00;16.20;89.80
20081;DHT22;10200;49.232;9.222;2023-10-08T03:20:36;16.20;89.90
20081;DHT22;10200;49.232;9.222;2023-10-08T03:23:11;16.10;90.00
20081;DHT22;10200;49.232;9.222;2023-10-08T03:25:55;16.30;90.10
20081;DHT22;10200;49.232;9.222;2023-10-08T03:28:25;16.10;90.10
20081;DHT22;10200;49.232;9.222;2023-10-08T03:30:52;16.10;90.10
20081;DHT22;10200;49.232;9.222;2023-10-08T03:33:21;16.10;90.10
20081;DHT22;10200;49.232;9.222;2023-10-08T03:35:49;16.00;90.10
20081;DHT22;10200;49.232;9.222;2023-10-08T03:38:19;16.10;90.40
20081;DHT22;10200;49.232;9.222;2023-10-08T03:40:54;16.20;90.20
20081;DHT22;10200;49.232;9.222;2023-10-08T03:43:25;16.00;90.10
20081;DHT22;10200;49.232;9.222;2023-10-08T03:46:00;16.00;90.20
20081;DHT22;10200;49.232;9.222;2023-10-08T03:48:32;16.00;90.20
20081;DHT22;10200;49.232;9.222;2023-10-08T03:51:04;16.00;90.10
20081;DHT22;10200;49.232;9.222;2023-10-08T03:53:36;16.00;90.20
20081;DHT22;10200;49.232;9.222;2023-10-08T03:56:14;16.00;90.30
20081;DHT22;10200;49.232;9.222;2023-10-08T03:58:44;16.00;90.40
20081;DHT22;10200;49.232;9.222;2023-10-08T04:01:12;15.90;90.50
20081;DHT22;10200;49.232;9.222;2023-10-08T04:03:44;16.00;93.20
20081;DHT22;10200;49.232;9.222;2023-10-08T04:06:21;16.00;92.00
20081;DHT22;10200;49.232;9.222;2023-10-08T04:08:54;16.00;93.00
20081;DHT22;10200;49.232;9.222;2023-10-08T04:11:38;16.00;93.90
20081;DHT22;10200;49.232;9.222;2023-10-08T04:14:18;15.90;91.20
20081;DHT22;10200;49.232;9.222;2023-10-08T04:16:43;15.80;91.00
20081;DHT22;10200;49.232;9.222;2023-10-08T04:19:10;15.80;91.00
20081;DHT22;10200;49.232;9.222;2023-10-08T04:21:36;15.70;91.20
20081;DHT22;10200;49.232;9.222;2023-10-08T04:24:02;15.60;91.30
20081;DHT22;10200;49.232;9.222;2023-10-08T04:26:32;15.50;91.40
20081;DHT22;10200;49.232;9.222;2023-10-08T04:28:59;15.50;91.70
20081;DHT22;10200;49.232;9.222;2023-10-08T04:31:31;15.40;91.90
20081;DHT22;10200;49.232;9.222;2023-10-08T04:34:06;15.30;92.00
20081;DHT22;10200;49.232;9.222;2023-10-08T04:36:45;15.20;92.10
20081;DHT22;10200;49.232;9.222;2023-10-08T04:39:14;15.20;92.60
20081;DHT22;10200;49.232;9.222;2023-10-08T04:41:42;15.00;92.90
20081;DHT22;10200;49.232;9.222;2023-10-08T04:44:09;15.00;93.40
20081;DHT22;10200;49.232;9.222;2023-10-08T04:46:42;14.90;93.80
20081;DHT22;10200;49.232;9.222;2023-10-08T04:49:11;14.90;94.10
20081;DHT22;10200;49.232;9.222;2023-10-08T04:51:44;14.90;94.40
20081;DHT22;10200;49.232;9.222;2023-10-08T04:54:11;14.80;94.60
20081;DHT22;10200;49.232;9.222;2023-10-08T04:56:42;14.90;94.90
20081;DHT22;10200;49.232;9.222;2023-10-08T04:59:08;14.80;94.70
20081;DHT22;10200;49.232;9.222;2023-10-08T05:01:37;14.70;94.80
20081;DHT22;10200;49.232;9.222;2023-10-08T05:04:34;14.70;95.60
20081;DHT22;10200;49.232;9.222;2023-10-08T05:07:11;14.60;95.40
20081;DHT22;10200;49.232;9.222;2023-10-08T05:09:47;14.50;96.40
20081;DHT22;10200;49.232;9.222;2023-10-08T05:12:28;14.50;96.50
20081;DHT22;10200;49.232;9.222;2023-10-08T05:15:00;14.50;96.90
20081;DHT22;10200;49.232;9.222;2023-10-08T05:17:42;14.50;97.20
20081;DHT22;10200;49.232;9.222;2023-10-08T05:20:21;14.50;97.40
20081;DHT22;10200;49.232;9.222;2023-10-08T05:23:13;14.50;97.50
20081;DHT22;10200;49.232;9.222;2023-10-08T05:26:03;14.40;97.60
20081;DHT22;10200;49.232;9.222;2023-10-08T05:28:38;14.40;98.00
20081;DHT22;10200;49.232;9.222;2023-10-08T05:31:28;14.40;98.30
20081;DHT22;10200;49.232;9.222;2023-10-08T05:34:11;14.40;99.00
20081;DHT22;10200;49.232;9.222;2023-10-08T05:37:00;14.30;99.00
20081;DHT22;10200;49.232;9.222;2023-10-08T05:39:25;14.30;99.40
20081;DHT22;10200;49.232;9.222;2023-10-08T05:42:09;14.30;99.30
20081;DHT22;10200;49.232;9.222;2023-10-08T05:44:57;14.20;99.60
20081;DHT22;10200;49.232;9.222;2023-10-08T05:47:35;14.20;99.90
20081;DHT22;10200;49.232;9.222;2023-10-08T05:50:02;14.20;99.90
20081;DHT22;10200;49.232;9.222;2023-10-08T05:52:44;14.20;99.90
20081;DHT22;10200;49.232;9.222;2023-10-08T05:55:18;14.20;99.90
20081;DHT22;10200;49.232;9.222;2023-10-08T05:58:06;14.20;99.90
20081;DHT22;10200;49.232;9.222;2023-10-08T06:00:48;14.20;99.90
20081;DHT22;10200;49.232;9.222;2023-10-08T06:03:34;14.20;99.90
20081;DHT22;10200;49.232;9.222;2023-10-08T06:06:35;14.20;99.90
20081;DHT22;10200;49.232;9.222;2023-10-08T06:09:12;14.10;99.90
20081;DHT22;10200;49.232;9.222;2023-10-08T06:11:38;14.20;99.90
20081;DHT22;10200;49.232;9.222;2023-10-08T06:14:11;14.20;99.90
20081;DHT22;10200;49.232;9.222;2023-10-08T06:16:43;14.20;99.90
20081;DHT22;10200;49.232;9.222;2023-10-08T06:19:17;14.30;99.90
20081;DHT22;10200;49.232;9.222;2023-10-08T06:21:43;14.40;99.90
20081;DHT22;10200;49.232;9.222;2023-10-08T06:24:09;14.50;99.90
20081;DHT22;10200;49.232;9.222;2023-10-08T06:26:39;14.50;99.90
20081;DHT22;10200;49.232;9.222;2023-10-08T06:29:09;14.30;99.90
20081;DHT22;10200;49.232;9.222;2023-10-08T06:31:45;14.80;99.90
20081;DHT22;10200;49.232;9.222;2023-10-08T06:34:17;15.10;99.90
20081;DHT22;10200;49.232;9.222;2023-10-08T06:36:46;15.40;99.90
20081;DHT22;10200;49.232;9.222;2023-10-08T06:39:12;15.50;99.90
20081;DHT22;10200;49.232;9.222;2023-10-08T06:41:44;15.70;99.90
20081;DHT22;10200;49.232;9.222;2023-10-08T06:44:12;16.00;99.90
20081;DHT22;10200;49.232;9.222;2023-10-08T06:46:40;16.30;98.10
20081;DHT22;10200;49.232;9.222;2023-10-08T06:49:08;16.10;96.70
20081;DHT22;10200;49.232;9.222;2023-10-08T06:51:41;16.10;96.80
20081;DHT22;10200;49.232;9.222;2023-10-08T06:54:08;15.90;97.40
20081;DHT22;10200;49.232;9.222;2023-10-08T06:56:39;15.40;97.60
20081;DHT22;10200;49.232;9.222;2023-10-08T06:59:11;16.00;97.90
20081;DHT22;10200;49.232;9.222;2023-10-08T07:01:37;15.80;98.40
20081;DHT22;10200;49.232;9.222;2023-10-08T07:04:06;15.80;98.30
20081;DHT22;10200;49.232;9.222;2023-10-08T07:06:36;15.70;98.60
20081;DHT22;10200;49.232;9.222;2023-10-08T07:09:03;15.70;99.00
20081;DHT22;10200;49.232;9.222;2023-10-08T07:11:35;15.80;99.10
20081;DHT22;10200;49.232;9.222;2023-10-08T07:14:04;15.80;99.00
20081;DHT22;10200;49.232;9.222;2023-10-08T07:16:31;15.80;99.50
20081;DHT22;10200;49.232;9.222;2023-10-08T07:18:56;15.80;99.90
20081;DHT22;10200;49.232;9.222;2023-10-08T07:21:31;15.90;99.90
20081;DHT22;10200;49.232;9.222;2023-10-08T07:24:11;16.00;99.90
20081;DHT22;10200;49.232;9.222;2023-10-08T07:26:41;16.10;99.90
20081;DHT22;10200;49.232;9.222;2023-10-08T07:29:15;16.30;99.90
20081;DHT22;10200;49.232;9.222;2023-10-08T07:31:45;16.50;99.70
20081;DHT22;10200;49.232;9.222;2023-10-08T07:34:15;16.80;99.90
20081;DHT22;10200;49.232;9.222;2023-10-08T07:36:46;16.80;98.40
20081;DHT22;10200;49.232;9.222;2023-10-08T07:39:19;16.90;98.40
20081;DHT22;10200;49.232;9.222;2023-10-08T07:41:52;17.00;98.60
20081;DHT22;10200;49.232;9.222;2023-10-08T07:44:20;17.40;99.90
20081;DHT22;10200;49.232;9.222;2023-10-08T07:46:51;17.80;97.50
20081;DHT22;10200;49.232;9.222;2023-10-08T07:49:17;17.90;94.70
20081;DHT22;10200;49.232;9.222;2023-10-08T07:51:43;17.90;94.40
20081;DHT22;10200;49.232;9.222;2023-10-08T07:54:22;18.50;97.00
20081;DHT22;10200;49.232;9.222;2023-10-08T07:56:49;20.00;92.40
20081;DHT22;10200;49.232;9.222;2023-10-08T07:59:17;20.50;91.30
20081;DHT22;10200;49.232;9.222;2023-10-08T08:01:43;21.40;86.30
20081;DHT22;10200;49.232;9.222;2023-10-08T08:04:12;22.00;78.30
20081;DHT22;10200;49.232;9.222;2023-10-08T08:06:58;22.20;71.90
20081;DHT22;10200;49.232;9.222;2023-10-08T08:09:26;21.90;69.50
20081;DHT22;10200;49.232;9.222;2023-10-08T08:11:52;21.90;74.20
20081;DHT22;10200;49.232;9.222;2023-10-08T08:14:22;22.20;91.40
20081;DHT22;10200;49.232;9.222;2023-10-08T08:16:50;21.90;80.90
20081;DHT22;10200;49.232;9.222;2023-10-08T08:19:17;21.70;70.80
20081;DHT22;10200;49.232;9.222;2023-10-08T08:21:49;21.60;78.30
20081;DHT22;10200;49.232;9.222;2023-10-08T08:24:17;21.30;74.10
20081;DHT22;10200;49.232;9.222;2023-10-08T08:26:55;21.10;71.70
20081;DHT22;10200;49.232;9.222;2023-10-08T08:29:33;21.30;72.40
20081;DHT22;10200;49.232;9.222;2023-10-08T08:32:12;21.80;69.50
20081;DHT22;10200;49.232;9.222;2023-10-08T08:34:41;21.90;70.20
20081;DHT22;10200;49.232;9.222;2023-10-08T08:37:12;22.30;69.00
20081;DHT22;10200;49.232;9.222;2023-10-08T08:39:41;22.70;67.70
20081;DHT22;10200;49.232;9.222;2023-10-08T08:42:07;22.90;65.40
20081;DHT22;10200;49.232;9.222;2023-10-08T08:44:36;22.90;64.40
20081;DHT22;10200;49.232;9.222;2023-10-08T08:47:05;23.00;64.20
20081;DHT22;10200;49.232;9.222;2023-10-08T08:49:36;22.90;64.40
20081;DHT22;10200;49.232;9.222;2023-10-08T08:52:05;23.00;63.70
20081;DHT22;10200;49.232;9.222;2023-10-08T08:54:30;23.00;63.60
20081;DHT22;10200;49.232;9.222;2023-10-08T08:56:57;23.00;63.20
20081;DHT22;10200;49.232;9.222;2023-10-08T08:59:27;23.00;63.60
20081;DHT22;10200;49.232;9.222;2023-10-08T09:01:59;23.00;62.00
20081;DHT22;10200;49.232;9.222;2023-10-08T09:04:30;22.90;62.50
20081;DHT22;10200;49.232;9.222;2023-10-08T09:06:56;22.80;62.80
20081;DHT22;10200;49.232;9.222;2023-10-08T09:09:25;22.70;62.90
20081;DHT22;10200;49.232;9.222;2023-10-08T09:11:56;22.60;63.10
20081;DHT22;10200;49.232;9.222;2023-10-08T09:14:26;22.40;63.30
20081;DHT22;10200;49.232;9.222;2023-10-08T09:16:53;22.30;63.90
20081;DHT22;10200;49.232;9.222;2023-10-08T09:19:19;22.10;64.30
20081;DHT22;10200;49.232;9.222;2023-10-08T09:22:09;21.90;64.70
20081;DHT22;10200;49.232;9.222;2023-10-08T09:24:38;21.80;65.70
20081;DHT22;10200;49.232;9.222;2023-10-08T09:27:08;21.60;66.00
20081;DHT22;10200;49.232;9.222;2023-10-08T09:29:34;21.40;66.40
20081;DHT22;10200;49.232;9.222;2023-10-08T09:32:05;21.40;67.10
20081;DHT22;10200;49.232;9.222;2023-10-08T09:34:32;21.30;67.50
20081;DHT22;10200;49.232;9.222;2023-10-08T09:36:58;21.30;68.10
20081;DHT22;10200;49.232;9.222;2023-10-08T09:39:29;21.20;68.40
20081;DHT22;10200;49.232;9.222;2023-10-08T09:42:00;21.20;68.50
20081;DHT22;10200;49.232;9.222;2023-10-08T09:44:28;21.30;68.90
20081;DHT22;10200;49.232;9.222;2023-10-08T09:49:31;21.30;69.10
20081;DHT22;10200;49.232;9.222;2023-10-08T09:52:01;21.40;69.60
20081;DHT22;10200;49.232;9.222;2023-10-08T09:54:30;21.30;69.50
20081;DHT22;10200;49.232;9.222;2023-10-08T09:56:59;21.40;69.80
20081;DHT22;10200;49.232;9.222;2023-10-08T09:59:27;21.40;69.80
20081;DHT22;10200;49.232;9.222;2023-10-08T10:01:55;21.40;70.00
20081;DHT22;10200;49.232;9.222;2023-10-08T10:04:25;21.50;70.20
20081;DHT22;10200;49.232;9.222;2023-10-08T10:06:56;21.50;70.00
20081;DHT22;10200;49.232;9.222;2023-10-08T10:09:24;21.50;69.70
20081;DHT22;10200;49.232;9.222;2023-10-08T10:11:50;21.60;70.50
20081;DHT22;10200;49.232;9.222;2023-10-08T10:14:17;21.60;70.30
20081;DHT22;10200;49.232;9.222;2023-10-08T10:16:46;21.70;70.10
20081;DHT22;10200;49.232;9.222;2023-10-08T10:19:17;21.80;70.20
20081;DHT22;10200;49.232;9.222;2023-10-08T10:21:46;21.90;70.10
20081;DHT22;10200;49.232;9.222;2023-10-08T10:24:35;21.90;69.50
20081;DHT22;10200;49.232;9.222;2023-10-08T10:27:13;22.10;69.40
20081;DHT22;10200;49.232;9.222;2023-10-08T10:29:44;22.30;69.00
20081;DHT22;10200;49.232;9.222;2023-10-08T10:32:13;22.50;67.90
20081;DHT22;10200;49.232;9.222;2023-10-08T10:34:45;22.60;67.60
20081;DHT22;10200;49.232;9.222;2023-10-08T10:37:13;22.70;67.10
20081;DHT22;10200;49.232;9.222;2023-10-08T10:39:57;22.80;66.80
20081;DHT22;10200;49.232;9.222;2023-10-08T10:42:26;22.80;66.30
20081;DHT22;10200;49.232;9.222;2023-10-08T10:44:54;22.80;65.80
20081;DHT22;10200;49.232;9.222;2023-10-08T10:47:24;22.80;66.00
20081;DHT22;10200;49.232;9.222;2023-10-08T10:49:54;22.70;65.60
20081;DHT22;10200;49.232;9.222;2023-10-08T10:52:32;22.70;66.00
20081;DHT22;10200;49.232;9.222;2023-10-08T10:55:05;22.60;66.00
20081;DHT22;10200;49.232;9.222;2023-10-08T10:57:56;22.60;66.50
20081;DHT22;10200;49.232;9.222;2023-10-08T11:00:31;22.60;66.90
20081;DHT22;10200;49.232;9.222;2023-10-08T11:03:00;22.60;67.00
20081;DHT22;10200;49.232;9.222;2023-10-08T11:05:32;22.70;67.10
20081;DHT22;10200;49.232;9.222;2023-10-08T11:08:03;22.70;66.70
20081;DHT22;10200;49.232;9.222;2023-10-08T11:10:35;22.80;66.30
20081;DHT22;10200;49.232;9.222;2023-10-08T11:13:05;22.80;66.90
20081;DHT22;10200;49.232;9.222;2023-10-08T11:15:39;22.80;65.80
20081;DHT22;10200;49.232;9.222;2023-10-08T11:18:19;22.80;66.10
20081;DHT22;10200;49.232;9.222;2023-10-08T11:20:46;22.80;66.10
20081;DHT22;10200;49.232;9.222;2023-10-08T11:23:39;22.90;65.70
20081;DHT22;10200;49.232;9.222;2023-10-08T11:26:07;22.80;65.10
20081;DHT22;10200;49.232;9.222;2023-10-08T11:28:37;22.70;64.80
20081;DHT22;10200;49.232;9.222;2023-10-08T11:31:09;22.70;64.70
20081;DHT22;10200;49.232;9.222;2023-10-08T11:33:40;22.60;65.20
20081;DHT22;10200;49.232;9.222;2023-10-08T11:36:08;22.50;65.20
20081;DHT22;10200;49.232;9.222;2023-10-08T11:38:55;22.60;66.00
20081;DHT22;10200;49.232;9.222;2023-10-08T11:41:28;22.60;65.60
20081;DHT22;10200;49.232;9.222;2023-10-08T11:43:56;22.60;65.90
20081;DHT22;10200;49.232;9.222;2023-10-08T11:46:27;22.60;65.60
20081;DHT22;10200;49.232;9.222;2023-10-08T11:48:58;22.70;65.40
20081;DHT22;10200;49.232;9.222;2023-10-08T11:51:32;22.70;65.40
20081;DHT22;10200;49.232;9.222;2023-10-08T11:54:02;22.80;65.30
20081;DHT22;10200;49.232;9.222;2023-10-08T11:56:29;22.90;64.90
20081;DHT22;10200;49.232;9.222;2023-10-08T11:58:55;22.90;64.40
20081;DHT22;10200;49.232;9.222;2023-10-08T12:01:26;22.90;64.60
20081;DHT22;10200;49.232;9.222;2023-10-08T12:03:53;22.90;65.20
20081;DHT22;10200;49.232;9.222;2023-10-08T12:06:22;23.10;64.90
20081;DHT22;10200;49.232;9.222;2023-10-08T12:08:49;23.20;64.70
20081;DHT22;10200;49.232;9.222;2023-10-08T12:11:19;23.20;63.60
20081;DHT22;10200;49.232;9.222;2023-10-08T12:13:48;23.20;62.90
20081;DHT22;10200;49.232;9.222;2023-10-08T12:16:15;23.10;63.70
20081;DHT22;10200;49.232;9.222;2023-10-08T12:18:53;23.00;63.60
20081;DHT22;10200;49.232;9.222;2023-10-08T12:21:19;23.00;63.80
20081;DHT22;10200;49.232;9.222;2023-10-08T12:23:45;22.90;64.00
20081;DHT22;10200;49.232;9.222;2023-10-08T12:26:12;22.90;63.70
20081;DHT22;10200;49.232;9.222;2023-10-08T12:28:42;22.90;63.90
20081;DHT22;10200;49.232;9.222;2023-10-08T12:31:16;22.90;64.00
20081;DHT22;10200;49.232;9.222;2023-10-08T12:33:46;22.90;64.20
20081;DHT22;10200;49.232;9.222;2023-10-08T12:36:12;22.80;64.30
20081;DHT22;10200;49.232;9.222;2023-10-08T12:41:07;22.90;64.80
20081;DHT22;10200;49.232;9.222;2023-10-08T12:43:42;22.90;64.90
20081;DHT22;10200;49.232;9.222;2023-10-08T12:46:11;22.90;65.00
20081;DHT22;10200;49.232;9.222;2023-10-08T12:48:43;22.90;65.10
20081;DHT22;10200;49.232;9.222;2023-10-08T12:51:10;22.90;64.80
20081;DHT22;10200;49.232;9.222;2023-10-08T12:53:37;22.90;64.70
20081;DHT22;10200;49.232;9.222;2023-10-08T12:56:07;23.00;64.60
20081;DHT22;10200;49.232;9.222;2023-10-08T12:58:40;23.00;64.60
20081;DHT22;10200;49.232;9.222;2023-10-08T13:01:15;23.00;64.30
20081;DHT22;10200;49.232;9.222;2023-10-08T13:03:46;23.10;64.30
20081;DHT22;10200;49.232;9.222;2023-10-08T13:06:17;23.00;64.10
20081;DHT22;10200;49.232;9.222;2023-10-08T13:08:54;23.10;64.00
20081;DHT22;10200;49.232;9.222;2023-10-08T13:11:25;23.10;64.00
20081;DHT22;10200;49.232;9.222;2023-10-08T13:16:18;23.20;63.50
20081;DHT22;10200;49.232;9.222;2023-10-08T13:18:43;23.30;63.60
20081;DHT22;10200;49.232;9.222;2023-10-08T13:21:10;23.30;63.00
20081;DHT22;10200;49.232;9.222;2023-10-08T13:23:36;23.30;63.30
20081;DHT22;10200;49.232;9.222;2023-10-08T13:26:02;23.40;63.20
20081;DHT22;10200;49.232;9.222;2023-10-08T13:28:33;23.40;63.20
20081;DHT22;10200;49.232;9.222;2023-10-08T13:31:00;23.40;63.20
20081;DHT22;10200;49.232;9.222;2023-10-08T13:33:25;23.50;63.60
20081;DHT22;10200;49.232;9.222;2023-10-08T13:35:52;23.50;63.20
20081;DHT22;10200;49.232;9.222;2023-10-08T13:38:18;23.50;62.70
20081;DHT22;10200;49.232;9.222;2023-10-08T13:40:47;23.50;62.80
20081;DHT22;10200;49.232;9.222;2023-10-08T13:43:29;23.60;62.50
20081;DHT22;10200;49.232;9.222;2023-10-08T13:46:08;23.60;62.10
20081;DHT22;10200;49.232;9.222;2023-10-08T13:48:40;23.60;62.00
20081;DHT22;10200;49.232;9.222;2023-10-08T13:51:07;23.70;62.90
20081;DHT22;10200;49.232;9.222;2023-10-08T13:53:42;23.80;62.20
20081;DHT22;10200;49.232;9.222;2023-10-08T13:56:12;23.80;61.60
20081;DHT22;10200;49.232;9.222;2023-10-08T13:58:39;23.80;61.50
20081;DHT22;10200;49.232;9.222;2023-10-08T14:01:12;23.80;61.20
20081;DHT22;10200;49.232;9.222;2023-10-08T14:03:50;23.80;61.30
20081;DHT22;10200;49.232;9.222;2023-10-08T14:06:19;23.90;61.60
20081;DHT22;10200;49.232;9.222;2023-10-08T14:08:46;23.90;61.30
20081;DHT22;10200;49.232;9.222;2023-10-08T14:11:18;24.00;61.00
20081;DHT22;10200;49.232;9.222;2023-10-08T14:13:44;24.00;61.40
20081;DHT22;10200;49.232;9.222;2023-10-08T14:16:10;24.00;61.30
20081;DHT22;10200;49.232;9.222;2023-10-08T14:18:37;24.00;61.30
20081;DHT22;10200;49.232;9.222;2023-10-08T14:21:11;24.10;61.20
20081;DHT22;10200;49.232;9.222;2023-10-08T14:23:37;24.10;61.40
20081;DHT22;10200;49.232;9.222;2023-10-08T14:26:07;24.20;61.40
20081;DHT22;10200;49.232;9.222;2023-10-08T14:28:34;24.20;60.90
20081;DHT22;10200;49.232;9.222;2023-10-08T14:31:10;24.20;60.80
20081;DHT22;10200;49.232;9.222;2023-10-08T14:33:42;24.20;61.10
20081;DHT22;10200;49.232;9.222;2023-10-08T14:36:25;24.10;60.80
20081;DHT22;10200;49.232;9.222;2023-10-08T14:39:09;24.00;61.00
20081;DHT22;10200;49.232;9.222;2023-10-08T14:41:54;24.00;61.30
20081;DHT22;10200;49.232;9.222;2023-10-08T14:44:38;23.90;60.90
20081;DHT22;10200;49.232;9.222;2023-10-08T14:47:04;23.80;61.10
20081;DHT22;10200;49.232;9.222;2023-10-08T14:49:30;23.80;61.40
20081;DHT22;10200;49.232;9.222;2023-10-08T14:51:57;23.70;61.90
20081;DHT22;10200;49.232;9.222;2023-10-08T14:54:23;23.70;62.00
20081;DHT22;10200;49.232;9.222;2023-10-08T14:56:50;23.70;62.20
20081;DHT22;10200;49.232;9.222;2023-10-08T14:59:16;23.60;62.60
20081;DHT22;10200;49.232;9.222;2023-10-08T15:01:45;23.50;63.00
20081;DHT22;10200;49.232;9.222;2023-10-08T15:04:12;23.60;63.30
20081;DHT22;10200;49.232;9.222;2023-10-08T15:06:38;23.50;63.60
20081;DHT22;10200;49.232;9.222;2023-10-08T15:09:05;23.50;63.70
20081;DHT22;10200;49.232;9.222;2023-10-08T15:11:30;23.40;64.30
20081;DHT22;10200;49.232;9.222;2023-10-08T15:13:56;23.30;64.50
20081;DHT22;10200;49.232;9.222;2023-10-08T15:16:22;23.20;64.90
20081;DHT22;10200;49.232;9.222;2023-10-08T15:18:53;23.20;65.20
20081;DHT22;10200;49.232;9.222;2023-10-08T15:21:19;23.10;65.50
20081;DHT22;10200;49.232;9.222;2023-10-08T15:23:46;23.00;65.70
20081;DHT22;10200;49.232;9.222;2023-10-08T15:26:12;23.00;66.00
20081;DHT22;10200;49.232;9.222;2023-10-08T15:28:39;23.00;66.30
20081;DHT22;10200;49.232;9.222;2023-10-08T15:31:05;23.00;66.80
20081;DHT22;10200;49.232;9.222;2023-10-08T15:33:32;23.00;67.00
20081;DHT22;10200;49.232;9.222;2023-10-08T15:35:57;23.00;67.00
20081;DHT22;10200;49.232;9.222;2023-10-08T15:38:25;23.00;67.10
20081;DHT22;10200;49.232;9.222;2023-10-08T15:40:51;23.10;67.50
20081;DHT22;10200;49.232;9.222;2023-10-08T15:43:17;23.10;67.40
20081;DHT22;10200;49.232;9.222;2023-10-08T15:45:43;23.20;67.30
20081;DHT22;10200;49.232;9.222;2023-10-08T15:48:10;23.20;67.00
20081;DHT22;10200;49.232;9.222;2023-10-08T15:50:36;23.20;66.70
20081;DHT22;10200;49.232;9.222;2023-10-08T15:53:01;23.20;66.90
20081;DHT22;10200;49.232;9.222;2023-10-08T15:55:27;23.20;66.80
20081;DHT22;10200;49.232;9.222;2023-10-08T15:57:53;23.20;66.80
20081;DHT22;10200;49.232;9.222;2023-10-08T16:00:18;23.20;66.70
20081;DHT22;10200;49.232;9.222;2023-10-08T16:02:44;23.20;67.10